Time;durP1;ratioP1;P1;durP2;ratioP2;P2;SDS_P1;SDS_P2;PMS_P1;PMS_P2;Temp;Humidity;BMP_temperature;BMP_pressure;BME280_temperature;BME280_humidity;BME280_pressure;Samples;Min_cycle;Max_cycle;Signal;HPM_P1;HPM_P2
2022/05/10 00:02:00;;;;;;;15.25;6.45;;;;;;;;;;4930791;29;20059;-70
2022/05/10 00:04:29;;;;;;;15.98;6.43;;;;;;;;;;4925200;28;20051;-70
2022/05/10 00:06:56;;;;;;;17.90;6.45;;;;;;;;;;4929727;28;20059;-70
2022/05/10 00:09:29;;;;;;;20.48;6.70;;;;;;;;;;4944953;28;20103;-70
2022/05/10 00:11:57;;;;;;;17.42;7.38;;;;;;;;;;4927691;29;20051;-70
2022/05/10 00:14:26;;;;;;;21.52;8.05;;;;;;;;;;4945274;28;20078;-70
2022/05/10 00:16:53;;;;;;;15.90;7.10;;;;;;;;;;4923762;29;20059;-70
2022/05/10 00:19:21;;;;;;;20.10;7.65;;;;;;;;;;4947747;28;20050;-70
2022/05/10 00:21:50;;;;;;;15.90;7.78;;;;;;;;;;4920355;29;20402;-70
2022/05/10 00:24:17;;;;;;;15.20;7.28;;;;;;;;;;4930009;29;20459;-70
2022/05/10 00:26:44;;;;;;;16.88;7.40;;;;;;;;;;4945852;28;20059;-70
2022/05/10 00:29:11;;;;;;;19.77;6.95;;;;;;;;;;4943785;28;20114;-70
2022/05/10 00:31:39;;;;;;;17.42;7.13;;;;;;;;;;4926946;29;20062;-70
2022/05/10 00:34:06;;;;;;;14.63;7.30;;;;;;;;;;4944676;28;20048;-70
2022/05/10 00:36:34;;;;;;;15.38;8.00;;;;;;;;;;4928177;29;20122;-70
2022/05/10 00:39:02;;;;;;;19.95;7.82;;;;;;;;;;4947376;28;20445;-70
2022/05/10 00:41:31;;;;;;;14.77;7.43;;;;;;;;;;4925228;29;20055;-70
2022/05/10 00:44:01;;;;;;;17.75;8.40;;;;;;;;;;4943911;28;20546;-70
2022/05/10 00:46:32;;;;;;;17.35;8.23;;;;;;;;;;4928851;28;20509;-70
2022/05/10 00:49:01;;;;;;;20.88;8.65;;;;;;;;;;4926116;28;20058;-70
2022/05/10 00:51:32;;;;;;;19.70;8.73;;;;;;;;;;4946201;28;20061;-70
2022/05/10 00:54:01;;;;;;;20.83;8.45;;;;;;;;;;4923249;29;20110;-70
2022/05/10 00:56:34;;;;;;;17.83;9.02;;;;;;;;;;4922337;29;20114;-70
2022/05/10 00:59:05;;;;;;;20.17;9.18;;;;;;;;;;4948189;28;20059;-70
2022/05/10 01:01:33;;;;;;;18.98;8.50;;;;;;;;;;4941898;28;20055;-69
2022/05/10 01:04:05;;;;;;;19.00;9.20;;;;;;;;;;4932005;29;20067;-69
2022/05/10 01:06:35;;;;;;;15.48;8.35;;;;;;;;;;4924378;29;20051;-69
2022/05/10 01:09:05;;;;;;;16.65;9.05;;;;;;;;;;4944791;28;20063;-69
2022/05/10 01:11:35;;;;;;;19.67;8.95;;;;;;;;;;4919624;28;20058;-69
2022/05/10 01:14:06;;;;;;;19.40;9.00;;;;;;;;;;4937363;29;20047;-69
2022/05/10 01:16:33;;;;;;;15.38;8.23;;;;;;;;;;4939640;28;20050;-69
2022/05/10 01:19:00;;;;;;;17.20;8.60;;;;;;;;;;4928381;29;20066;-69
2022/05/10 01:21:37;;;;;;;18.42;9.02;;;;;;;;;;4922441;28;20059;-70
2022/05/10 01:24:17;;;;;;;15.68;8.27;;;;;;;;;;4945222;28;20055;-70
2022/05/10 01:26:56;;;;;;;19.88;9.15;;;;;;;;;;4948106;28;20482;-70
2022/05/10 01:29:28;;;;;;;15.77;8.55;;;;;;;;;;4922853;29;20055;-70
2022/05/10 01:34:39;;;;;;;18.60;9.55;;;;;;;;;;4927439;29;20107;-70
2022/05/10 01:37:09;;;;;;;18.73;8.77;;;;;;;;;;4927531;29;20055;-70
2022/05/10 01:39:39;;;;;;;23.55;9.75;;;;;;;;;;4924291;29;20080;-70
2022/05/10 01:42:07;;;;;;;15.52;9.82;;;;;;;;;;4945434;28;20059;-70
2022/05/10 01:44:40;;;;;;;15.85;9.55;;;;;;;;;;4945719;29;20510;-70
2022/05/10 01:47:10;;;;;;;16.92;9.95;;;;;;;;;;4947522;28;20081;-70
2022/05/10 01:49:39;;;;;;;15.57;9.40;;;;;;;;;;4942385;28;20047;-70
2022/05/10 01:52:12;;;;;;;14.43;9.00;;;;;;;;;;4940514;29;20581;-70
2022/05/10 01:55:01;;;;;;;14.27;9.30;;;;;;;;;;4944398;28;20052;-70
2022/05/10 01:57:29;;;;;;;16.13;9.75;;;;;;;;;;4927872;29;20105;-70
2022/05/10 02:00:01;;;;;;;17.35;9.82;;;;;;;;;;4925824;29;20058;-70
2022/05/10 02:02:29;;;;;;;19.90;10.38;;;;;;;;;;4927905;29;20110;-70
2022/05/10 02:04:59;;;;;;;21.15;10.05;;;;;;;;;;4926725;29;20051;-70
2022/05/10 02:07:27;;;;;;;18.75;10.32;;;;;;;;;;4922717;28;20573;-70
2022/05/10 02:09:58;;;;;;;16.33;10.40;;;;;;;;;;4942079;28;20093;-70
2022/05/10 02:12:28;;;;;;;20.17;10.70;;;;;;;;;;4946291;28;20058;-70
2022/05/10 02:14:57;;;;;;;19.70;10.27;;;;;;;;;;4940176;28;20110;-70
2022/05/10 02:17:29;;;;;;;18.58;9.95;;;;;;;;;;4928942;29;20059;-70
2022/05/10 02:20:08;;;;;;;18.35;10.07;;;;;;;;;;4924295;29;20123;-70
2022/05/10 02:22:38;;;;;;;21.58;10.23;;;;;;;;;;4925079;28;20058;-70
2022/05/10 02:25:07;;;;;;;17.88;9.95;;;;;;;;;;4946307;28;20051;-70
2022/05/10 02:27:37;;;;;;;14.55;9.48;;;;;;;;;;4942022;28;20050;-70
2022/05/10 02:30:05;;;;;;;17.55;10.30;;;;;;;;;;4925840;29;20051;-70
2022/05/10 02:35:24;;;;;;;19.80;9.88;;;;;;;;;;4945030;28;20126;-70
2022/05/10 02:37:51;;;;;;;19.55;9.82;;;;;;;;;;4945989;28;20055;-70
2022/05/10 02:40:18;;;;;;;18.45;9.90;;;;;;;;;;4923590;29;20103;-70
2022/05/10 02:42:47;;;;;;;19.98;10.30;;;;;;;;;;4949752;28;20442;-70
2022/05/10 02:45:18;;;;;;;21.83;10.43;;;;;;;;;;4944612;28;20070;-70
2022/05/10 02:47:48;;;;;;;19.33;9.60;;;;;;;;;;4924537;29;20059;-70
2022/05/10 02:50:16;;;;;;;21.13;10.25;;;;;;;;;;4939968;28;20077;-70
2022/05/10 02:52:44;;;;;;;21.48;10.85;;;;;;;;;;4942799;28;20055;-70
2022/05/10 02:55:14;;;;;;;20.80;9.48;;;;;;;;;;4922093;29;20055;-70
2022/05/10 02:57:41;;;;;;;16.67;9.35;;;;;;;;;;4925224;29;20067;-70
2022/05/10 03:00:09;;;;;;;18.90;9.70;;;;;;;;;;4922393;29;20054;-70
2022/05/10 03:02:38;;;;;;;18.98;9.38;;;;;;;;;;4917625;29;20182;-70
2022/05/10 03:05:08;;;;;;;18.92;9.52;;;;;;;;;;4927795;29;20051;-70
2022/05/10 03:07:35;;;;;;;22.05;9.77;;;;;;;;;;4944681;28;20098;-70
2022/05/10 03:10:03;;;;;;;18.70;8.98;;;;;;;;;;4943622;28;20063;-70
2022/05/10 03:12:30;;;;;;;15.38;8.50;;;;;;;;;;4943224;28;20495;-70
2022/05/10 03:14:57;;;;;;;16.90;8.35;;;;;;;;;;4945971;28;20051;-70
2022/05/10 03:17:25;;;;;;;16.13;7.97;;;;;;;;;;4928368;28;20047;-70
2022/05/10 03:19:52;;;;;;;17.73;8.65;;;;;;;;;;4923406;29;20070;-70
2022/05/10 03:22:21;;;;;;;16.42;8.38;;;;;;;;;;4923493;29;20058;-70
2022/05/10 03:24:48;;;;;;;15.57;8.75;;;;;;;;;;4924697;29;20058;-70
2022/05/10 03:27:16;;;;;;;15.73;8.45;;;;;;;;;;4946159;28;20114;-70
2022/05/10 03:29:43;;;;;;;15.35;8.98;;;;;;;;;;4926704;29;20722;-70
2022/05/10 03:32:11;;;;;;;16.20;8.38;;;;;;;;;;4929251;29;20058;-70
2022/05/10 03:34:57;;;;;;;14.35;8.57;;;;;;;;;;4942704;29;20073;-70
2022/05/10 03:37:27;;;;;;;16.98;8.52;;;;;;;;;;4946641;28;20050;-70
2022/05/10 03:39:55;;;;;;;15.70;8.02;;;;;;;;;;4947159;28;20062;-70
2022/05/10 03:42:22;;;;;;;19.80;8.25;;;;;;;;;;4948008;28;20043;-70
2022/05/10 03:44:52;;;;;;;16.38;8.05;;;;;;;;;;4927503;29;20614;-70
2022/05/10 03:47:20;;;;;;;13.48;7.70;;;;;;;;;;4944927;28;20408;-70
2022/05/10 03:49:47;;;;;;;16.83;7.75;;;;;;;;;;4941520;28;20059;-70
2022/05/10 03:52:15;;;;;;;14.13;8.52;;;;;;;;;;4930399;28;20070;-70
2022/05/10 03:54:44;;;;;;;15.98;7.97;;;;;;;;;;4928274;28;20050;-70
2022/05/10 03:57:11;;;;;;;14.82;8.38;;;;;;;;;;4928855;29;20050;-70
2022/05/10 03:59:41;;;;;;;19.73;8.65;;;;;;;;;;4947210;28;20454;-70
2022/05/10 04:02:09;;;;;;;19.52;9.15;;;;;;;;;;4947013;28;20060;-70
2022/05/10 04:04:37;;;;;;;16.13;8.93;;;;;;;;;;4928713;29;20134;-70
2022/05/10 04:07:04;;;;;;;15.15;8.63;;;;;;;;;;4927769;29;20063;-70
2022/05/10 04:09:31;;;;;;;14.68;9.20;;;;;;;;;;4948706;28;20106;-69
2022/05/10 04:12:00;;;;;;;16.15;8.55;;;;;;;;;;4944257;28;20051;-69
2022/05/10 04:14:27;;;;;;;16.50;8.25;;;;;;;;;;4945956;28;20058;-69
2022/05/10 04:16:54;;;;;;;16.80;8.75;;;;;;;;;;4947683;28;20059;-69
2022/05/10 04:19:22;;;;;;;18.38;9.18;;;;;;;;;;4948053;28;20298;-69
2022/05/10 04:21:49;;;;;;;18.52;9.23;;;;;;;;;;4947425;28;20502;-69
2022/05/10 04:24:16;;;;;;;16.35;9.18;;;;;;;;;;4947481;28;20043;-69
2022/05/10 04:26:43;;;;;;;15.77;8.85;;;;;;;;;;4940860;28;20493;-69
2022/05/10 04:29:12;;;;;;;17.10;8.85;;;;;;;;;;4943548;28;20055;-69
2022/05/10 04:31:39;;;;;;;14.30;8.45;;;;;;;;;;4941995;28;20146;-69
2022/05/10 04:34:07;;;;;;;17.02;8.50;;;;;;;;;;4944881;28;20047;-69
2022/05/10 04:36:34;;;;;;;13.27;8.02;;;;;;;;;;4940007;28;20466;-69
2022/05/10 04:39:01;;;;;;;15.27;9.32;;;;;;;;;;4946447;28;20055;-69
2022/05/10 04:41:30;;;;;;;21.95;8.50;;;;;;;;;;4939425;28;20051;-69
2022/05/10 04:43:59;;;;;;;18.30;8.70;;;;;;;;;;4925090;29;20069;-69
2022/05/10 04:46:28;;;;;;;14.50;8.30;;;;;;;;;;4939284;28;20079;-69
2022/05/10 04:48:55;;;;;;;14.02;8.40;;;;;;;;;;4939939;28;20055;-69
2022/05/10 04:51:22;;;;;;;13.82;8.82;;;;;;;;;;4940297;28;20058;-69
2022/05/10 04:53:50;;;;;;;14.60;8.90;;;;;;;;;;4942362;28;20066;-69
2022/05/10 04:56:17;;;;;;;15.63;8.80;;;;;;;;;;4944658;28;20091;-69
2022/05/10 04:58:45;;;;;;;16.05;8.80;;;;;;;;;;4919542;29;20071;-69
2022/05/10 05:01:14;;;;;;;14.68;8.48;;;;;;;;;;4933823;28;20055;-69
2022/05/10 05:03:45;;;;;;;18.98;9.38;;;;;;;;;;4919686;29;20048;-69
2022/05/10 05:06:12;;;;;;;20.27;9.07;;;;;;;;;;4919252;29;20520;-69
2022/05/10 05:08:39;;;;;;;14.40;8.30;;;;;;;;;;4937936;28;20065;-69
2022/05/10 05:11:07;;;;;;;18.60;9.25;;;;;;;;;;4925053;29;20098;-69
2022/05/10 05:13:34;;;;;;;19.00;8.60;;;;;;;;;;4938410;29;20054;-69
2022/05/10 05:16:02;;;;;;;16.75;8.65;;;;;;;;;;4942754;29;20066;-69
2022/05/10 05:18:29;;;;;;;15.95;7.88;;;;;;;;;;4938655;29;20059;-69
2022/05/10 05:20:58;;;;;;;14.55;8.07;;;;;;;;;;4924489;29;20158;-69
2022/05/10 05:23:25;;;;;;;16.75;7.70;;;;;;;;;;4939124;29;20059;-69
2022/05/10 05:25:55;;;;;;;12.82;7.63;;;;;;;;;;4920308;29;20503;-69
2022/05/10 05:28:22;;;;;;;13.57;8.13;;;;;;;;;;4937120;28;20146;-69
2022/05/10 05:30:50;;;;;;;16.98;8.02;;;;;;;;;;4941520;29;20059;-69
2022/05/10 05:33:17;;;;;;;15.07;7.28;;;;;;;;;;4922488;29;20145;-69
2022/05/10 05:35:44;;;;;;;15.18;7.65;;;;;;;;;;4942255;28;20106;-69
2022/05/10 05:38:13;;;;;;;11.73;7.22;;;;;;;;;;4921499;28;20055;-69
2022/05/10 05:40:40;;;;;;;17.35;7.57;;;;;;;;;;4919809;29;20060;-69
2022/05/10 05:43:08;;;;;;;13.15;7.03;;;;;;;;;;4940485;28;20549;-69
2022/05/10 05:45:35;;;;;;;14.38;7.05;;;;;;;;;;4940342;28;20055;-69
2022/05/10 05:48:02;;;;;;;12.20;7.30;;;;;;;;;;4917425;29;20052;-69
2022/05/10 05:50:30;;;;;;;12.32;6.97;;;;;;;;;;4937162;28;20062;-69
2022/05/10 05:52:57;;;;;;;13.27;7.00;;;;;;;;;;4941267;28;20051;-69
2022/05/10 05:55:26;;;;;;;13.10;6.88;;;;;;;;;;4926134;29;20055;-69
2022/05/10 05:57:53;;;;;;;14.95;6.78;;;;;;;;;;4949166;28;20442;-69
2022/05/10 06:00:21;;;;;;;13.18;7.57;;;;;;;;;;4948945;28;20059;-69
2022/05/10 06:02:50;;;;;;;13.18;7.03;;;;;;;;;;4947223;28;20142;-69
2022/05/10 06:05:17;;;;;;;17.58;7.70;;;;;;;;;;4926389;28;20506;-69
2022/05/10 06:07:44;;;;;;;15.88;7.38;;;;;;;;;;4944616;28;20125;-69
2022/05/10 06:10:12;;;;;;;12.77;6.95;;;;;;;;;;4941124;29;20050;-69
2022/05/10 06:12:41;;;;;;;10.65;6.90;;;;;;;;;;4945098;28;20122;-69
2022/05/10 06:15:10;;;;;;;14.48;6.97;;;;;;;;;;4944969;28;20043;-70
2022/05/10 06:17:38;;;;;;;12.27;7.38;;;;;;;;;;4946079;28;21043;-70
2022/05/10 06:20:06;;;;;;;19.05;7.57;;;;;;;;;;4943447;29;20059;-70
2022/05/10 06:22:34;;;;;;;15.18;7.47;;;;;;;;;;4926248;29;20135;-70
2022/05/10 06:25:01;;;;;;;16.45;7.30;;;;;;;;;;4922708;29;20118;-70
2022/05/10 06:27:29;;;;;;;14.82;7.18;;;;;;;;;;4947216;28;20048;-70
2022/05/10 06:29:57;;;;;;;15.65;7.78;;;;;;;;;;4925769;28;20118;-70
2022/05/10 06:32:25;;;;;;;12.95;7.30;;;;;;;;;;4946192;28;20463;-70
2022/05/10 06:34:53;;;;;;;11.63;7.35;;;;;;;;;;4933317;28;20532;-70
2022/05/10 06:40:06;;;;;;;14.35;7.25;;;;;;;;;;4944496;28;20043;-70
2022/05/10 06:42:34;;;;;;;11.75;7.03;;;;;;;;;;4926353;29;20082;-70
2022/05/10 06:45:02;;;;;;;12.40;7.32;;;;;;;;;;4933478;28;20478;-70
2022/05/10 06:47:29;;;;;;;15.82;7.97;;;;;;;;;;4923605;29;20059;-70
2022/05/10 06:49:57;;;;;;;15.40;8.88;;;;;;;;;;4919284;29;20063;-70
2022/05/10 06:52:24;;;;;;;14.23;7.72;;;;;;;;;;4945566;28;20051;-70
2022/05/10 06:54:51;;;;;;;15.45;8.88;;;;;;;;;;4941956;28;20053;-70
2022/05/10 06:57:18;;;;;;;14.57;8.55;;;;;;;;;;4941315;28;20043;-70
2022/05/10 06:59:46;;;;;;;13.48;8.55;;;;;;;;;;4922683;29;20125;-70
2022/05/10 07:02:15;;;;;;;16.13;9.68;;;;;;;;;;4942894;28;20146;-70
2022/05/10 07:04:42;;;;;;;17.02;8.73;;;;;;;;;;4925433;28;20083;-70
2022/05/10 07:07:09;;;;;;;15.82;9.65;;;;;;;;;;5277970;23;20071;-68
2022/05/10 07:09:38;;;;;;;17.38;8.68;;;;;;;;;;4978331;28;20042;-68
2022/05/10 07:12:06;;;;;;;15.13;9.63;;;;;;;;;;4965187;28;20105;-67
2022/05/10 07:14:33;;;;;;;14.43;9.18;;;;;;;;;;4974893;28;20057;-66
2022/05/10 07:17:00;;;;;;;15.63;8.20;;;;;;;;;;4970482;28;20054;-66
2022/05/10 07:19:29;;;;;;;14.23;8.60;;;;;;;;;;4984104;28;20054;-66
2022/05/10 07:21:56;;;;;;;18.23;9.80;;;;;;;;;;4966366;28;20062;-66
2022/05/10 07:24:23;;;;;;;15.70;8.60;;;;;;;;;;4986695;28;20117;-66
2022/05/10 07:26:50;;;;;;;12.95;7.63;;;;;;;;;;4984333;28;20046;-66
2022/05/10 07:29:18;;;;;;;13.38;8.02;;;;;;;;;;4966288;28;20053;-66
2022/05/10 07:31:45;;;;;;;17.10;8.23;;;;;;;;;;4963541;28;20479;-66
2022/05/10 07:34:13;;;;;;;15.75;7.95;;;;;;;;;;4985461;28;20132;-66
2022/05/10 07:36:42;;;;;;;17.08;7.80;;;;;;;;;;4968132;28;20503;-66
2022/05/10 07:39:11;;;;;;;12.77;7.15;;;;;;;;;;4970288;28;20058;-66
2022/05/10 07:41:38;;;;;;;14.88;7.90;;;;;;;;;;4968456;28;20508;-66
2022/05/10 07:44:06;;;;;;;15.27;7.80;;;;;;;;;;4984525;28;20439;-66
2022/05/10 07:46:33;;;;;;;16.25;7.80;;;;;;;;;;4968867;28;20058;-66
2022/05/10 07:49:00;;;;;;;18.25;8.30;;;;;;;;;;4962908;28;20051;-66
2022/05/10 07:51:27;;;;;;;16.20;7.43;;;;;;;;;;4965603;28;20132;-66
2022/05/10 07:53:56;;;;;;;17.38;7.60;;;;;;;;;;4968402;28;20420;-66
2022/05/10 07:56:24;;;;;;;15.45;7.45;;;;;;;;;;4982641;28;20461;-66
2022/05/10 07:58:51;;;;;;;19.60;8.10;;;;;;;;;;4986805;28;20046;-66
2022/05/10 08:01:19;;;;;;;19.52;9.07;;;;;;;;;;4977900;28;20069;-66
2022/05/10 08:03:47;;;;;;;14.38;8.45;;;;;;;;;;4957896;28;20267;-66
2022/05/10 08:06:15;;;;;;;15.30;7.15;;;;;;;;;;4958180;28;20132;-66
2022/05/10 08:08:43;;;;;;;19.52;7.80;;;;;;;;;;4939586;28;20080;-66
2022/05/10 08:11:12;;;;;;;14.20;7.25;;;;;;;;;;4942188;28;20417;-66
2022/05/10 08:13:39;;;;;;;14.48;7.30;;;;;;;;;;4943604;28;20126;-66
2022/05/10 08:16:08;;;;;;;11.90;6.72;;;;;;;;;;4947037;29;20078;-66
2022/05/10 08:18:36;;;;;;;16.02;7.85;;;;;;;;;;4946553;28;20043;-66
2022/05/10 08:21:05;;;;;;;12.10;6.53;;;;;;;;;;4938715;29;20066;-66
2022/05/10 08:23:33;;;;;;;13.50;6.85;;;;;;;;;;4942835;28;20139;-66
2022/05/10 08:26:01;;;;;;;11.68;6.72;;;;;;;;;;4935450;28;20776;-66
2022/05/10 08:28:30;;;;;;;12.95;6.80;;;;;;;;;;4939724;29;20262;-66
2022/05/10 08:30:57;;;;;;;15.32;6.80;;;;;;;;;;4941609;28;20122;-66
2022/05/10 08:33:26;;;;;;;16.85;6.50;;;;;;;;;;4942364;28;20057;-66
2022/05/10 08:35:54;;;;;;;15.35;6.30;;;;;;;;;;4943065;28;20465;-66
2022/05/10 08:38:22;;;;;;;12.68;5.93;;;;;;;;;;4943964;29;20047;-66
2022/05/10 08:40:51;;;;;;;12.75;6.00;;;;;;;;;;4949292;28;20074;-67
2022/05/10 08:43:21;;;;;;;11.15;5.25;;;;;;;;;;4943206;28;20517;-66
2022/05/10 08:45:50;;;;;;;10.75;5.45;;;;;;;;;;4948216;28;20446;-66
2022/05/10 08:48:17;;;;;;;10.68;5.15;;;;;;;;;;4947303;28;20055;-66
2022/05/10 08:50:46;;;;;;;16.63;5.72;;;;;;;;;;4947168;28;20485;-67
2022/05/10 08:53:14;;;;;;;12.00;5.38;;;;;;;;;;4946609;28;20150;-66
2022/05/10 08:55:44;;;;;;;11.25;5.25;;;;;;;;;;4942718;28;20055;-66
2022/05/10 08:58:17;;;;;;;9.32;4.60;;;;;;;;;;4945671;28;20055;-66
2022/05/10 09:00:47;;;;;;;11.13;5.43;;;;;;;;;;4945564;28;20063;-66
2022/05/10 09:03:20;;;;;;;13.00;5.65;;;;;;;;;;4944745;28;20130;-66
2022/05/10 09:05:47;;;;;;;;;;;;;;;;;;4945212;28;20062;-66
2022/05/10 09:08:19;;;;;;;13.18;5.53;;;;;;;;;;4964209;28;20352;-66
2022/05/10 09:10:47;;;;;;;23.13;6.20;;;;;;;;;;4964239;28;20398;-66
2022/05/10 09:13:15;;;;;;;12.38;6.15;;;;;;;;;;4953645;28;20065;-67
2022/05/10 09:15:45;;;;;;;14.15;5.28;;;;;;;;;;4947930;28;20047;-67
2022/05/10 09:18:16;;;;;;;18.23;6.25;;;;;;;;;;4945498;28;20057;-67
2022/05/10 09:20:50;;;;;;;13.88;6.45;;;;;;;;;;4944805;28;20062;-66
2022/05/10 09:23:24;;;;;;;14.10;6.35;;;;;;;;;;4952379;28;20054;-66
2022/05/10 09:25:51;;;;;;;14.52;6.22;;;;;;;;;;4948371;28;20132;-66
2022/05/10 09:28:21;;;;;;;15.57;6.43;;;;;;;;;;4939570;28;20493;-66
2022/05/10 09:36:24;;;;;;;15.68;6.78;;;;;;;;;;4940103;28;20082;-66
2022/05/10 09:38:51;;;;;;;18.67;7.25;;;;;;;;;;4963014;28;20082;-66
2022/05/10 09:41:27;;;;;;;21.38;7.28;;;;;;;;;;4959726;28;20073;-66
2022/05/10 09:43:55;;;;;;;14.50;7.20;;;;;;;;;;4961141;28;20401;-66
2022/05/10 09:46:24;;;;;;;14.63;7.20;;;;;;;;;;4943530;28;20051;-67
2022/05/10 09:48:51;;;;;;;21.42;7.75;;;;;;;;;;4946903;28;20050;-66
2022/05/10 09:51:29;;;;;;;14.85;8.02;;;;;;;;;;4943825;28;20062;-67
2022/05/10 09:53:56;;;;;;;15.50;6.70;;;;;;;;;;4940977;28;20066;-66
2022/05/10 09:56:30;;;;;;;15.13;7.43;;;;;;;;;;4957788;28;20128;-66
2022/05/10 09:58:59;;;;;;;11.98;7.07;;;;;;;;;;4957762;28;20674;-66
2022/05/10 10:01:38;;;;;;;14.70;7.57;;;;;;;;;;4944314;28;20146;-66
2022/05/10 10:04:13;;;;;;;16.25;7.70;;;;;;;;;;4943824;28;20061;-66
2022/05/10 10:06:42;;;;;;;18.50;7.72;;;;;;;;;;4939703;28;20109;-66
2022/05/10 10:09:09;;;;;;;13.73;8.18;;;;;;;;;;4945058;28;20659;-66
2022/05/10 10:11:39;;;;;;;14.80;7.13;;;;;;;;;;4936174;28;20074;-67
2022/05/10 10:14:08;;;;;;;15.88;7.43;;;;;;;;;;4961033;28;20050;-66
2022/05/10 10:16:37;;;;;;;16.17;7.82;;;;;;;;;;4941450;28;20744;-66
2022/05/10 10:19:06;;;;;;;16.00;7.25;;;;;;;;;;4940175;28;20051;-66
2022/05/10 10:21:41;;;;;;;16.00;7.80;;;;;;;;;;4963169;28;20065;-66
2022/05/10 10:24:10;;;;;;;18.75;7.13;;;;;;;;;;4962076;28;20047;-66
2022/05/10 10:26:40;;;;;;;16.08;7.70;;;;;;;;;;4964286;28;20051;-66
2022/05/10 10:29:10;;;;;;;19.77;7.88;;;;;;;;;;4947413;28;20051;-66
2022/05/10 10:31:40;;;;;;;12.70;6.80;;;;;;;;;;4963527;28;20560;-66
2022/05/10 10:34:11;;;;;;;21.75;7.18;;;;;;;;;;4940638;28;20094;-66
2022/05/10 10:36:39;;;;;;;14.15;6.60;;;;;;;;;;4957620;28;20117;-66
2022/05/10 10:39:09;;;;;;;17.52;6.85;;;;;;;;;;4960748;28;20047;-66
2022/05/10 10:41:48;;;;;;;13.77;6.25;;;;;;;;;;4959470;28;20051;-67
2022/05/10 10:44:19;;;;;;;23.45;5.95;;;;;;;;;;4965254;28;20492;-66
2022/05/10 10:46:49;;;;;;;16.38;6.53;;;;;;;;;;4965330;28;20054;-66
2022/05/10 10:49:17;;;;;;;12.60;4.88;;;;;;;;;;4945630;28;20047;-67
2022/05/10 10:51:45;;;;;;;17.48;5.10;;;;;;;;;;4948746;28;20050;-67
2022/05/10 10:54:17;;;;;;;15.68;5.05;;;;;;;;;;4948065;28;20078;-67
2022/05/10 10:56:50;;;;;;;11.77;5.03;;;;;;;;;;4946983;28;20058;-66
2022/05/10 10:59:27;;;;;;;12.63;4.22;;;;;;;;;;4956559;28;20540;-66
2022/05/10 11:02:03;;;;;;;13.32;4.00;;;;;;;;;;4962708;28;20125;-66
2022/05/10 11:04:39;;;;;;;14.88;4.05;;;;;;;;;;4949104;28;20149;-66
2022/05/10 11:07:10;;;;;;;19.65;4.70;;;;;;;;;;4945390;28;20066;-66
2022/05/10 11:09:44;;;;;;;13.70;4.50;;;;;;;;;;4963857;28;20634;-66
2022/05/10 11:12:17;;;;;;;7.70;3.83;;;;;;;;;;4944876;28;20497;-66
2022/05/10 11:14:52;;;;;;;13.05;3.97;;;;;;;;;;4947195;28;20055;-67
2022/05/10 11:17:25;;;;;;;6.30;3.50;;;;;;;;;;4944374;28;20062;-67
2022/05/10 11:20:03;;;;;;;10.60;3.80;;;;;;;;;;4944469;28;20061;-67
2022/05/10 11:22:33;;;;;;;13.93;4.32;;;;;;;;;;4946060;28;20055;-67
2022/05/10 11:25:06;;;;;;;12.93;3.50;;;;;;;;;;4944703;28;20552;-67
2022/05/10 11:27:42;;;;;;;8.27;3.63;;;;;;;;;;4943868;28;20076;-67
2022/05/10 11:30:10;;;;;;;6.30;3.40;;;;;;;;;;4943426;28;20051;-67
2022/05/10 11:32:46;;;;;;;10.82;3.58;;;;;;;;;;4944971;28;20394;-67
2022/05/10 11:35:17;;;;;;;13.35;3.30;;;;;;;;;;4960852;28;20141;-67
2022/05/10 11:37:48;;;;;;;9.18;3.15;;;;;;;;;;4944837;28;20083;-67
2022/05/10 11:40:23;;;;;;;8.88;2.97;;;;;;;;;;4945948;28;20063;-67
2022/05/10 11:43:03;;;;;;;5.63;2.80;;;;;;;;;;4946063;28;20063;-67
2022/05/10 11:45:40;;;;;;;7.28;3.25;;;;;;;;;;4943000;28;20046;-67
2022/05/10 11:48:26;;;;;;;5.20;2.67;;;;;;;;;;4947002;28;20051;-66
2022/05/10 11:54:07;;;;;;;15.82;2.80;;;;;;;;;;4961305;28;20057;-67
2022/05/10 11:56:35;;;;;;;8.70;2.95;;;;;;;;;;4964236;28;20058;-67
2022/05/10 11:59:05;;;;;;;9.25;3.05;;;;;;;;;;4963659;28;20054;-67
2022/05/10 12:01:42;;;;;;;13.65;2.90;;;;;;;;;;4962679;28;20058;-67
2022/05/10 12:04:31;;;;;;;8.45;2.58;;;;;;;;;;4946124;28;20118;-66
2022/05/10 12:07:19;;;;;;;12.40;2.80;;;;;;;;;;4963664;28;20047;-67
2022/05/10 12:09:59;;;;;;;16.23;3.20;;;;;;;;;;4942638;28;20051;-67
2022/05/10 12:12:45;;;;;;;7.72;2.95;;;;;;;;;;4943643;28;20489;-67
2022/05/10 12:24:02;;;;;;;9.90;3.38;;;;;;;;;;4961507;28;20906;-66
2022/05/10 12:26:35;;;;;;;11.73;3.55;;;;;;;;;;4959838;28;20089;-66
2022/05/10 12:29:03;;;;;;;11.00;3.70;;;;;;;;;;4943754;28;20153;-66
2022/05/10 12:31:51;;;;;;;8.80;3.55;;;;;;;;;;4947175;28;20118;-66
2022/05/10 12:34:33;;;;;;;10.50;3.70;;;;;;;;;;4937422;28;20155;-66
2022/05/10 12:37:16;;;;;;;12.13;3.45;;;;;;;;;;4941633;28;20058;-67
2022/05/10 12:39:44;;;;;;;8.10;3.22;;;;;;;;;;4938701;28;20114;-66
2022/05/10 12:42:15;;;;;;;7.95;3.47;;;;;;;;;;4944596;28;20070;-66
2022/05/10 12:44:58;;;;;;;11.82;3.40;;;;;;;;;;4951927;28;20505;-67
2022/05/10 12:47:52;;;;;;;9.73;3.38;;;;;;;;;;4960102;28;20058;-66
2022/05/10 12:50:26;;;;;;;8.00;3.17;;;;;;;;;;4961419;28;20725;-66
2022/05/10 12:52:53;;;;;;;7.05;2.92;;;;;;;;;;4946477;28;20047;-66
2022/05/10 12:55:22;;;;;;;7.35;3.15;;;;;;;;;;4943261;28;20814;-66
2022/05/10 12:57:54;;;;;;;7.40;3.10;;;;;;;;;;4961635;28;20054;-66
2022/05/10 13:00:23;;;;;;;9.17;2.57;;;;;;;;;;4946201;28;20102;-66
2022/05/10 13:02:53;;;;;;;10.70;2.95;;;;;;;;;;4947404;28;20323;-67
2022/05/10 13:05:22;;;;;;;6.32;2.85;;;;;;;;;;4946618;28;20059;-66
2022/05/10 13:08:09;;;;;;;9.63;3.13;;;;;;;;;;4945685;28;20121;-66
2022/05/10 13:10:37;;;;;;;15.65;3.20;;;;;;;;;;4946836;28;20047;-66
2022/05/10 13:13:08;;;;;;;11.25;3.35;;;;;;;;;;4945146;28;20051;-66
2022/05/10 13:15:41;;;;;;;12.18;3.00;;;;;;;;;;4951159;28;20118;-66
2022/05/10 13:18:12;;;;;;;12.63;3.65;;;;;;;;;;4968376;28;20061;-67
2022/05/10 13:20:45;;;;;;;9.48;3.15;;;;;;;;;;4948999;28;20882;-66
2022/05/10 13:23:12;;;;;;;9.30;3.17;;;;;;;;;;4947364;28;20097;-66
2022/05/10 13:25:40;;;;;;;12.27;3.38;;;;;;;;;;4946778;28;20050;-66
2022/05/10 13:28:10;;;;;;;8.25;3.30;;;;;;;;;;4949990;28;20170;-66
2022/05/10 13:30:38;;;;;;;10.68;3.22;;;;;;;;;;4963557;28;20058;-66
2022/05/10 13:33:06;;;;;;;13.15;3.85;;;;;;;;;;4945320;28;20050;-66
2022/05/10 13:35:34;;;;;;;12.82;3.80;;;;;;;;;;4945485;28;20501;-66
2022/05/10 13:38:03;;;;;;;10.93;3.55;;;;;;;;;;4946854;28;20050;-66
2022/05/10 13:40:33;;;;;;;10.15;3.35;;;;;;;;;;4966541;28;20090;-66
2022/05/10 13:43:08;;;;;;;9.68;3.75;;;;;;;;;;4945097;28;20058;-66
2022/05/10 13:45:37;;;;;;;13.23;3.28;;;;;;;;;;4962182;28;20050;-66
2022/05/10 13:48:07;;;;;;;8.43;3.65;;;;;;;;;;4947087;28;20055;-66
2022/05/10 13:50:34;;;;;;;11.63;3.67;;;;;;;;;;4962148;28;20482;-66
2022/05/10 13:53:03;;;;;;;11.20;3.25;;;;;;;;;;4944535;28;20067;-66
2022/05/10 13:55:31;;;;;;;8.25;3.13;;;;;;;;;;4961813;28;20405;-66
2022/05/10 13:58:00;;;;;;;12.68;3.30;;;;;;;;;;4945779;28;20063;-66
2022/05/10 14:00:32;;;;;;;11.65;3.17;;;;;;;;;;4949668;28;20042;-66
2022/05/10 14:03:00;;;;;;;10.38;3.35;;;;;;;;;;4946922;28;20513;-66
2022/05/10 14:05:29;;;;;;;8.48;3.47;;;;;;;;;;4947095;28;20059;-66
2022/05/10 14:07:58;;;;;;;8.10;3.08;;;;;;;;;;4943488;28;20528;-66
2022/05/10 14:10:28;;;;;;;10.13;2.80;;;;;;;;;;4960240;28;20043;-66
2022/05/10 14:12:57;;;;;;;10.73;3.97;;;;;;;;;;4962160;28;20485;-66
2022/05/10 14:15:26;;;;;;;11.77;3.10;;;;;;;;;;4944426;28;20051;-66
2022/05/10 14:17:55;;;;;;;9.75;3.15;;;;;;;;;;4963640;28;20050;-66
2022/05/10 14:20:25;;;;;;;12.38;2.97;;;;;;;;;;4944878;28;20047;-66
2022/05/10 14:22:54;;;;;;;9.20;3.47;;;;;;;;;;4965479;28;20059;-66
2022/05/10 14:25:22;;;;;;;8.00;3.53;;;;;;;;;;4962423;28;20118;-66
2022/05/10 14:28:05;;;;;;;11.10;3.10;;;;;;;;;;4944508;28;20051;-66
2022/05/10 14:30:39;;;;;;;10.60;3.80;;;;;;;;;;4944571;28;20720;-66
2022/05/10 14:33:14;;;;;;;14.45;4.00;;;;;;;;;;4942504;28;20058;-66
2022/05/10 14:35:45;;;;;;;14.00;4.13;;;;;;;;;;4960024;28;20718;-66
2022/05/10 14:38:16;;;;;;;11.93;3.53;;;;;;;;;;4943970;28;20047;-66
2022/05/10 14:40:43;;;;;;;10.00;3.50;;;;;;;;;;4940224;28;20644;-66
2022/05/10 14:43:11;;;;;;;12.20;3.78;;;;;;;;;;4943171;28;20124;-66
2022/05/10 14:45:41;;;;;;;9.48;3.50;;;;;;;;;;4943364;28;20082;-66
2022/05/10 14:48:28;;;;;;;12.15;3.20;;;;;;;;;;4943882;28;20059;-66
2022/05/10 14:51:01;;;;;;;9.57;3.33;;;;;;;;;;4941910;28;20058;-66
2022/05/10 14:53:29;;;;;;;7.83;3.23;;;;;;;;;;4942128;28;20612;-66
2022/05/10 14:56:11;;;;;;;7.57;3.25;;;;;;;;;;4958355;28;20054;-66
2022/05/10 14:58:40;;;;;;;9.63;3.55;;;;;;;;;;4941721;28;20062;-66
2022/05/10 15:01:09;;;;;;;9.15;3.35;;;;;;;;;;4950257;28;20099;-66
2022/05/10 15:03:37;;;;;;;7.75;2.67;;;;;;;;;;4941846;28;20090;-66
2022/05/10 15:06:07;;;;;;;9.27;2.90;;;;;;;;;;4942546;28;20051;-66
2022/05/10 15:08:34;;;;;;;8.50;1.90;;;;;;;;;;4941331;28;20100;-66
2022/05/10 15:11:03;;;;;;;6.38;2.13;;;;;;;;;;4943847;28;20441;-66
2022/05/10 15:13:30;;;;;;;4.90;1.50;;;;;;;;;;4956608;28;20062;-66